Time;durP1;ratioP1;P1;durP2;ratioP2;P2;SDS_P1;SDS_P2;PMS_P1;PMS_P2;Temp;Humidity;BMP_temperature;BMP_pressure;BME280_temperature;BME280_humidity;BME280_pressure;Samples;Min_cycle;Max_cycle;Signal;HPM_P1;HPM_P2
2021/03/23 19:24:16;;;;;;;;;;;;;;;;;;4983380;27;145684;-47
2021/03/23 19:26:42;;;;;;;;;;;;;;;;;;4960390;28;120812;-51
2021/03/23 19:29:08;;;;;;;;;;;;;;;;;;4961109;28;19983;-48
2021/03/23 19:31:34;;;;;;;;;;;;;;;;;;4977317;28;19929;-44
2021/03/23 19:34:00;;;;;;;;;;;;;;;;;;4964745;28;19911;-46
2021/03/23 19:36:26;;;;;;;;;;;;;;;;;;4961995;28;19914;-46
2021/03/23 19:38:52;;;;;;;;;;;;;;;;;;4966092;28;19926;-48
2021/03/23 19:41:18;;;;;;;;;;;;;;;;;;4966260;28;19961;-50
2021/03/23 19:43:45;;;;;;;;;;;;;;;;;;4963243;28;19969;-47
2021/03/23 19:46:11;;;;;;;;;;;;;;;;;;4965790;28;19914;-46
2021/03/23 19:48:37;;;;;;;;;;;;;;;;;;4966483;28;19972;-48
2021/03/23 19:51:07;;;;;;;;;;;;;;;;;;4961140;28;20176;-45
2021/03/23 19:53:33;;;;;;;;;;;;;;;;;;4959988;28;20358;-50
2021/03/23 19:55:59;;;;;;;;;;;;;;;;;;4960432;28;19918;-44
2021/03/23 19:58:25;;;;;;;;;;;;;;;;;;4969716;28;19910;-45
2021/03/23 20:00:50;;;;;;;;;;;;;;;;;;4961505;28;20641;-45
2021/03/23 20:03:19;;;;;;;;;;;;;;;;;;4968628;28;20405;-42
2021/03/23 20:05:44;;;;;;;;;;;;;;;;;;4961715;28;20307;-44
2021/03/23 20:08:10;;;;;;;;;;;;;;;;;;4956158;28;19934;-46
2021/03/23 20:10:36;;;;;;;;;;;;;;;;;;4968389;28;20412;-45
2021/03/23 20:13:02;;;;;;;;;;;;;;;;;;4963952;28;19915;-45
2021/03/23 20:15:28;;;;;;;;;;;;;;;;;;4956935;28;20373;-49
2021/03/23 20:17:54;;;;;;;;;;;;;;;;;;4961499;28;20037;-44
2021/03/23 20:20:20;;;;;;;;;;;;;;;;;;4963301;28;19919;-45
2021/03/23 20:22:46;;;;;;;;;;;;;;;;;;4967765;28;20291;-46
2021/03/23 20:25:12;;;;;;;;;;;;;;;;;;4987444;28;19914;-50
2021/03/23 20:27:37;;;;;;;;;;;;;;;;;;5007961;28;20256;-46
2021/03/23 20:30:03;;;;;;;;;;;;;;;;;;4985766;28;19933;-46
2021/03/23 20:32:29;;;;;;;;;;;;;;;;;;4980506;28;19914;-61
2021/03/23 20:34:55;;;;;;;;;;;;;;;;;;4978469;28;20365;-61
2021/03/23 20:37:21;;;;;;;;;;;;;;;;;;4971657;28;19949;-62
2021/03/23 20:39:47;;;;;;;;;;;;;;;;;;4966835;28;19921;-60
2021/03/23 20:42:13;;;;;;;;;;;;;;;;;;4973606;28;19946;-61
2021/03/23 20:44:39;;;;;;;;;;;;;;;;;;5049173;28;20344;-62
2021/03/23 20:47:05;;;;;;;;;;;;;;;;;;5069487;28;19910;-62
2021/03/23 20:49:31;;;;;;;;;;;;;;;;;;4971675;28;20615;-62
2021/03/23 20:51:56;;;;;;;;;;;;;;;;;;4966572;28;20446;-62
2021/03/23 20:54:22;;;;;;;;;;;;;;;;;;4971467;28;19999;-63
2021/03/23 20:56:48;;;;;;;;;;;;;;;;;;4966665;28;19919;-45
2021/03/23 20:59:14;;;;;;;;;;;;;;;;;;4989165;28;19918;-45
2021/03/23 21:01:40;;;;;;;;;;;;;;;;;;4982008;28;19919;-44
2021/03/23 21:04:09;;;;;;;;;;;;;;;;;;4966304;28;20004;-46
2021/03/23 21:06:35;;;;;;;;;;;;;;;;;;4967277;28;19910;-45
2021/03/23 21:09:01;;;;;;;;;;;;;;;;;;4967552;28;19930;-44
2021/03/23 21:11:27;;;;;;;;;;;;;;;;;;4966242;28;20003;-44
2021/03/23 21:13:54;;;;;;;;;;;;;;;;;;4986596;28;19913;-44
2021/03/23 21:16:20;;;;;;;;;;;;;;;;;;4986010;28;19921;-45
2021/03/23 21:18:46;;;;;;;;;;;;;;;;;;4966759;28;19914;-45
2021/03/23 21:21:13;;;;;;;;;;;;;;;;;;4966458;28;19921;-45
2021/03/23 21:23:39;;;;;;;;;;;;;;;;;;4972102;28;20430;-45
2021/03/23 21:26:05;;;;;;;;;;;;;;;;;;4981099;28;19949;-45
2021/03/23 21:28:31;;;;;;;;;;;;;;;;;;4968079;28;19976;-45
2021/03/23 21:30:57;;;;;;;;;;;;;;;;;;4996577;28;19968;-45
2021/03/23 21:33:23;;;;;;;;;;;;;;;;;;5004867;28;19909;-45
2021/03/23 21:35:49;;;;;;;;;;;;;;;;;;4986074;28;20007;-44
2021/03/23 21:38:15;;;;;;;;;;;;;;;;;;4967092;28;19975;-45
2021/03/23 21:40:41;;;;;;;;;;;;;;;;;;4971243;28;20010;-45
2021/03/23 21:43:07;;;;;;;;;;;;;;;;;;4989652;28;20383;-44
2021/03/23 21:45:32;;;;;;;;;;;;;;;;;;5014682;28;19912;-45
2021/03/23 21:47:58;;;;;;;;;;;;;;;;;;4978891;28;19914;-45
2021/03/23 21:50:24;;;;;;;;;;;;;;;;;;4967321;28;19914;-45
2021/03/23 21:52:52;;;;;;;;;;;;;;;;;;4971296;28;19937;-45
2021/03/23 21:55:18;;;;;;;;;;;;;;;;;;4981385;28;19920;-45
2021/03/23 21:57:44;;;;;;;;;;;;;;;;;;4972329;28;20009;-45
2021/03/23 22:00:10;;;;;;;;;;;;;;;;;;4970832;28;19910;-44
2021/03/23 22:02:36;;;;;;;;;;;;;;;;;;4966263;28;19938;-45
2021/03/23 22:05:02;;;;;;;;;;;;;;;;;;4976520;28;19910;-46
2021/03/23 22:07:27;;;;;;;;;;;;;;;;;;4974604;28;19915;-45
2021/03/23 22:09:53;;;;;;;;;;;;;;;;;;4988266;28;19957;-45
2021/03/23 22:12:19;;;;;;;;;;;;;;;;;;4988863;28;20375;-44
2021/03/23 22:14:45;;;;;;;;;;;;;;;;;;4974310;28;19939;-44
2021/03/23 22:17:11;;;;;;;;;;;;;;;;;;4969822;28;20379;-48
2021/03/23 22:19:37;;;;;;;;;;;;;;;;;;4963510;28;20930;-46
2021/03/23 22:22:03;;;;;;;;;;;;;;;;;;4964537;28;19914;-44
2021/03/23 22:24:29;;;;;;;;;;;;;;;;;;4970868;28;20298;-45
2021/03/23 22:26:55;;;;;;;;;;;;;;;;;;4969414;28;19914;-45
2021/03/23 22:29:21;;;;;;;;;;;;;;;;;;4964558;28;19914;-44
2021/03/23 22:31:47;;;;;;;;;;;;;;;;;;5004555;28;19919;-44
2021/03/23 22:34:12;;;;;;;;;;;;;;;;;;4984351;28;19914;-44
2021/03/23 22:36:38;;;;;;;;;;;;;;;;;;4980918;28;20335;-45
2021/03/23 22:39:04;;;;;;;;;;;;;;;;;;4970394;28;19968;-44
2021/03/23 22:41:30;;;;;;;;;;;;;;;;;;4993757;28;20001;-44
2021/03/23 22:43:56;;;;;;;;;;;;;;;;;;5006628;28;20404;-44
2021/03/23 22:46:22;;;;;;;;;;;;;;;;;;4983205;28;19919;-48
2021/03/23 22:48:48;;;;;;;;;;;;;;;;;;4966028;28;19917;-45
2021/03/23 22:51:14;;;;;;;;;;;;;;;;;;4972551;28;20426;-45
2021/03/23 22:53:40;;;;;;;;;;;;;;;;;;5024693;28;19933;-46
2021/03/23 22:56:05;;;;;;;;;;;;;;;;;;4971000;28;19925;-45
2021/03/23 22:58:31;;;;;;;;;;;;;;;;;;4964146;28;19914;-45
2021/03/23 23:00:57;;;;;;;;;;;;;;;;;;4971107;28;19910;-45
2021/03/23 23:03:23;;;;;;;;;;;;;;;;;;4974316;28;20006;-45
2021/03/23 23:05:49;;;;;;;;;;;;;;;;;;4963192;28;20021;-46
2021/03/23 23:08:15;;;;;;;;;;;;;;;;;;4968519;28;19914;-46
2021/03/23 23:10:41;;;;;;;;;;;;;;;;;;4994132;28;19921;-45
2021/03/23 23:13:07;;;;;;;;;;;;;;;;;;4965072;28;19917;-45
2021/03/23 23:15:33;;;;;;;;;;;;;;;;;;4978125;28;19920;-44
2021/03/23 23:17:59;;;;;;;;;;;;;;;;;;4972704;28;21129;-44
2021/03/23 23:20:25;;;;;;;;;;;;;;;;;;4970753;28;19910;-45
2021/03/23 23:22:51;;;;;;;;;;;;;;;;;;4969917;28;20318;-45
2021/03/23 23:25:17;;;;;;;;;;;;;;;;;;4966292;28;19917;-44
2021/03/23 23:27:43;;;;;;;;;;;;;;;;;;4980613;28;19912;-46
2021/03/23 23:30:09;;;;;;;;;;;;;;;;;;4965834;28;19963;-43
2021/03/23 23:32:35;;;;;;;;;;;;;;;;;;5002335;28;19916;-45
2021/03/23 23:35:01;;;;;;;;;;;;;;;;;;4964176;28;20173;-45
2021/03/23 23:37:27;;;;;;;;;;;;;;;;;;5023285;28;19915;-45
2021/03/23 23:39:53;;;;;;;;;;;;;;;;;;4968719;28;20544;-46
2021/03/23 23:42:19;;;;;;;;;;;;;;;;;;4971070;28;19979;-44
2021/03/23 23:44:45;;;;;;;;;;;;;;;;;;4983235;28;19915;-45
2021/03/23 23:47:10;;;;;;;;;;;;;;;;;;4969940;28;19911;-46
2021/03/23 23:49:36;;;;;;;;;;;;;;;;;;4965645;28;20383;-46
2021/03/23 23:52:02;;;;;;;;;;;;;;;;;;4973625;28;20365;-45
2021/03/23 23:54:28;;;;;;;;;;;;;;;;;;4962884;28;20015;-46
2021/03/23 23:56:54;;;;;;;;;;;;;;;;;;4976582;28;20365;-44
2021/03/23 23:59:20;;;;;;;;;;;;;;;;;;4995159;28;20330;-46
